F/V Spered Breizh — FIHY — position and weather

sailwx.info

Track history (hours):
 
Tides and Currents Weather Stations Pressure Air Temp Water Temp Dewpoint Dewpoint Depression Visibility Wind Speed Wind Dir Waves Ship Positions

F/V Spered Breizh

Last reported at 2017-Sep-20 00:01 UTC. Time now 2017-Sep-20 00:21 UTC.
Position N 47°47' W 004°46'.

Length 17 m.

MMSI: 228037700.

Date/timePositionNaut miles runAvg speedWind from/ knotsBaromVisibWave heightAir tempDewpointWater temp
2017-Sep-20 00:01N 47°47' W 004°46'3 5.0
2017-Sep-19 23:27N 47°49' W 004°44'0 0.6
2017-Sep-19 23:00N 47°49' W 004°44'3 6.7
2017-Sep-19 22:30N 47°52' W 004°44'3 5.2
2017-Sep-19 22:00N 47°55' W 004°44'1 1.6
2017-Sep-19 21:30N 47°56' W 004°44'3 6.5
2017-Sep-19 21:00N 47°58' W 004°47'2 3.6
2017-Sep-19 20:30N 47°59' W 004°49'1 1.8
2017-Sep-19 20:00N 47°60' W 004°49'3 5.4
2017-Sep-19 19:30N 48°02' W 004°48'510.5
2017-Sep-19 19:00N 48°07' W 004°52'3 6.2
2017-Sep-19 18:31N 48°10' W 004°52'5 9.2
2017-Sep-19 18:01N 48°09' W 004°46'5 9.5
2017-Sep-19 17:30N 48°07' W 004°39'5 9.7
2017-Sep-19 17:00N 48°07' W 004°32'5 9.2
2017-Sep-19 16:30N 48°07' W 004°25'4 7.5
2017-Sep-19 16:00N 48°06' W 004°19'0 0.0
2017-Sep-19 15:31N 48°06' W 004°19'0 0.0
2017-Sep-19 06:11N 48°06' W 004°19'0 0.0
2017-Sep-19 06:00N 48°06' W 004°19'0 0.0
2017-Sep-19 05:30N 48°06' W 004°19'0 0.0
2017-Sep-19 05:01N 48°06' W 004°19'0 0.0
2017-Sep-19 04:31N 48°06' W 004°19'0 0.0
2017-Sep-19 04:01N 48°06' W 004°19'3 5.9
2017-Sep-19 03:31N 48°07' W 004°23'2 4.7
2017-Sep-19 03:00N 48°07' W 004°27'1 1.4
2017-Sep-19 02:30N 48°07' W 004°28'3 5.7
2017-Sep-19 02:00N 48°09' W 004°31'1 1.0
2017-Sep-19 01:30N 48°09' W 004°31'1 2.0
2017-Sep-19 01:00N 48°08' W 004°31'0 0.2
2017-Sep-19 00:30N 48°09' W 004°31'0 0.8
2017-Sep-19 00:00N 48°08' W 004°31'2 4.5
2017-Sep-18 23:31N 48°08' W 004°34'0 0.7
2017-Sep-18 23:01N 48°09' W 004°34'4 8.4
2017-Sep-18 22:31N 48°08' W 004°40'5 9.5
2017-Sep-18 22:00N 48°10' W 004°47'3 5.4
2017-Sep-18 21:30N 48°11' W 004°50'4 7.5
2017-Sep-18 21:00N 48°14' W 004°54'4 7.6
2017-Sep-18 20:30N 48°17' W 004°52'0 0.6
2017-Sep-18 20:00N 48°17' W 004°51'1 2.0
2017-Sep-18 19:30N 48°18' W 004°52'3 6.0
2017-Sep-18 19:00N 48°16' W 004°48'5 9.1
2017-Sep-18 18:30N 48°13' W 004°43'4 8.9
2017-Sep-18 18:00N 48°10' W 004°38'510.2
2017-Sep-18 17:30N 48°09' W 004°31'5 9.9
2017-Sep-18 17:00N 48°08' W 004°24'3 6.7
2017-Sep-18 16:30N 48°06' W 004°20'0 0.0
2017-Sep-18 07:39N 48°06' W 004°20'0 0.0
2017-Sep-18 07:31N 48°06' W 004°20'0 0.0
2017-Sep-18 07:01N 48°06' W 004°20'0 0.0
2017-Sep-18 06:30N 48°06' W 004°20'0 0.0
2017-Sep-18 06:01N 48°06' W 004°20'0 0.0
2017-Sep-18 05:30N 48°06' W 004°20'0 0.0
2017-Sep-18 05:00N 48°06' W 004°20'0 0.0
2017-Sep-18 04:30N 48°06' W 004°20'0 0.0
2017-Sep-18 04:00N 48°06' W 004°20'0 0.0
2017-Sep-18 03:30N 48°06' W 004°20'1 2.2
2017-Sep-18 03:00N 48°07' W 004°20'2 4.6
2017-Sep-18 02:31N 48°07' W 004°24'0 0.8
2017-Sep-18 02:00N 48°07' W 004°24'4 8.8
2017-Sep-18 01:31N 48°07' W 004°31'2 4.2
2017-Sep-18 01:00N 48°08' W 004°34'0 0.8
2017-Sep-18 00:30N 48°08' W 004°34'0 0.2
2017-Sep-18 00:01N 48°08' W 004°34'0 0.2
2017-Sep-17 23:30N 48°08' W 004°34'0 0.3
2017-Sep-17 23:01N 48°08' W 004°34'3 5.4
2017-Sep-17 22:31N 48°09' W 004°38'4 8.3
2017-Sep-17 22:01N 48°09' W 004°44'2 3.9
2017-Sep-17 21:30N 48°11' W 004°44'1 1.0
2017-Sep-17 21:00N 48°12' W 004°45'4 7.7
2017-Sep-17 20:30N 48°15' W 004°46'3 5.8
2017-Sep-17 20:01N 48°17' W 004°50'0 0.4
2017-Sep-17 19:30N 48°17' W 004°50'2 3.6
2017-Sep-17 19:00N 48°15' W 004°48'4 8.2
2017-Sep-17 18:30N 48°12' W 004°45'5 9.2
2017-Sep-17 18:00N 48°10' W 004°38'5 9.6
2017-Sep-17 17:30N 48°09' W 004°32'5 9.5
2017-Sep-17 17:00N 48°08' W 004°25'4 7.8
2017-Sep-17 16:30N 48°06' W 004°19'0 0.0
2017-Sep-17 16:01N 48°06' W 004°19'0 0.0
2017-Sep-17 15:31N 48°06' W 004°19'0 0.0
2017-Sep-15 12:47N 48°06' W 004°19'0 0.0
2017-Sep-15 06:21N 48°06' W 004°19'0 0.0
2017-Sep-15 05:04N 48°06' W 004°19'0 0.6
2017-Sep-15 05:00N 48°06' W 004°19'0 0.1
2017-Sep-15 04:30N 48°06' W 004°19'0 0.0
2017-Sep-15 04:00N 48°06' W 004°19'0 0.0
2017-Sep-15 03:31N 48°06' W 004°19'0 0.0
2017-Sep-15 03:01N 48°06' W 004°19'0 0.0
2017-Sep-15 02:30N 48°06' W 004°19'0 0.2
2017-Sep-15 02:00N 48°06' W 004°20'0 0.2
2017-Sep-15 01:30N 48°06' W 004°19'1 1.6
2017-Sep-15 01:00N 48°07' W 004°20'5 9.1
2017-Sep-15 00:30N 48°08' W 004°27'3 5.6
2017-Sep-15 00:00N 48°09' W 004°30'0 0.2
2017-Sep-14 23:30N 48°09' W 004°30'0 0.8
2017-Sep-14 23:00N 48°10' W 004°30'3 5.1
2017-Sep-14 22:30N 48°12' W 004°28'3 5.1
2017-Sep-14 22:00N 48°13' W 004°24'1 2.3
2017-Sep-14 21:31N 48°12' W 004°24'0 0.9
2017-Sep-14 21:00N 48°12' W 004°23'0 0.3
2017-Sep-14 20:31N 48°12' W 004°23'2 3.5
2017-Sep-14 20:01N 48°10' W 004°24'4 8.9
2017-Sep-14 19:30N 48°08' W 004°29'2 3.9
2017-Sep-14 19:01N 48°08' W 004°32'2 4.3
2017-Sep-14 18:28N 48°08' W 004°29'5 8.6
2017-Sep-14 17:56N 48°07' W 004°22'2 5.0
2017-Sep-14 17:31N 48°06' W 004°19'0 0.0
2017-Sep-14 17:00N 48°06' W 004°19'0 0.0
2017-Sep-14 16:30N 48°06' W 004°19'  
Track history (hours):
 
Tides and Currents Weather Stations Pressure Air Temp Water Temp Dewpoint Dewpoint Depression Visibility Wind Speed Wind Dir Waves Ship Positions

F/V Spered Breizh

Last reported at 2017-Sep-20 00:01 UTC. Time now 2017-Sep-20 00:21 UTC.
Position N 47°47' W 004°46'.

Length 17 m.

MMSI: 228037700.

Date/timePositionNaut miles runAvg speedWind from/ knotsBaromVisibWave heightAir tempDewpointWater temp
2017-Sep-20 00:01N 47°47' W 004°46'3 5.0
2017-Sep-19 23:27N 47°49' W 004°44'0 0.6
2017-Sep-19 23:00N 47°49' W 004°44'3 6.7
2017-Sep-19 22:30N 47°52' W 004°44'3 5.2
2017-Sep-19 22:00N 47°55' W 004°44'1 1.6
2017-Sep-19 21:30N 47°56' W 004°44'3 6.5
2017-Sep-19 21:00N 47°58' W 004°47'2 3.6
2017-Sep-19 20:30N 47°59' W 004°49'1 1.8
2017-Sep-19 20:00N 47°60' W 004°49'3 5.4
2017-Sep-19 19:30N 48°02' W 004°48'510.5
2017-Sep-19 19:00N 48°07' W 004°52'3 6.2
2017-Sep-19 18:31N 48°10' W 004°52'5 9.2
2017-Sep-19 18:01N 48°09' W 004°46'5 9.5
2017-Sep-19 17:30N 48°07' W 004°39'5 9.7
2017-Sep-19 17:00N 48°07' W 004°32'5 9.2
2017-Sep-19 16:30N 48°07' W 004°25'4 7.5
2017-Sep-19 16:00N 48°06' W 004°19'0 0.0
2017-Sep-19 15:31N 48°06' W 004°19'0 0.0
2017-Sep-19 06:11N 48°06' W 004°19'0 0.0
2017-Sep-19 06:00N 48°06' W 004°19'0 0.0
2017-Sep-19 05:30N 48°06' W 004°19'0 0.0
2017-Sep-19 05:01N 48°06' W 004°19'0 0.0
2017-Sep-19 04:31N 48°06' W 004°19'0 0.0
2017-Sep-19 04:01N 48°06' W 004°19'3 5.9
2017-Sep-19 03:31N 48°07' W 004°23'2 4.7
2017-Sep-19 03:00N 48°07' W 004°27'1 1.4
2017-Sep-19 02:30N 48°07' W 004°28'3 5.7
2017-Sep-19 02:00N 48°09' W 004°31'1 1.0
2017-Sep-19 01:30N 48°09' W 004°31'1 2.0
2017-Sep-19 01:00N 48°08' W 004°31'0 0.2
2017-Sep-19 00:30N 48°09' W 004°31'0 0.8
2017-Sep-19 00:00N 48°08' W 004°31'2 4.5
2017-Sep-18 23:31N 48°08' W 004°34'0 0.7
2017-Sep-18 23:01N 48°09' W 004°34'4 8.4
2017-Sep-18 22:31N 48°08' W 004°40'5 9.5
2017-Sep-18 22:00N 48°10' W 004°47'3 5.4
2017-Sep-18 21:30N 48°11' W 004°50'4 7.5
2017-Sep-18 21:00N 48°14' W 004°54'4 7.6
2017-Sep-18 20:30N 48°17' W 004°52'0 0.6
2017-Sep-18 20:00N 48°17' W 004°51'1 2.0
2017-Sep-18 19:30N 48°18' W 004°52'3 6.0
2017-Sep-18 19:00N 48°16' W 004°48'5 9.1
2017-Sep-18 18:30N 48°13' W 004°43'4 8.9
2017-Sep-18 18:00N 48°10' W 004°38'510.2
2017-Sep-18 17:30N 48°09' W 004°31'5 9.9
2017-Sep-18 17:00N 48°08' W 004°24'3 6.7
2017-Sep-18 16:30N 48°06' W 004°20'0 0.0
2017-Sep-18 07:39N 48°06' W 004°20'0 0.0
2017-Sep-18 07:31N 48°06' W 004°20'0 0.0
2017-Sep-18 07:01N 48°06' W 004°20'0 0.0
2017-Sep-18 06:30N 48°06' W 004°20'0 0.0
2017-Sep-18 06:01N 48°06' W 004°20'0 0.0
2017-Sep-18 05:30N 48°06' W 004°20'0 0.0
2017-Sep-18 05:00N 48°06' W 004°20'0 0.0
2017-Sep-18 04:30N 48°06' W 004°20'0 0.0
2017-Sep-18 04:00N 48°06' W 004°20'0 0.0
2017-Sep-18 03:30N 48°06' W 004°20'1 2.2
2017-Sep-18 03:00N 48°07' W 004°20'2 4.6
2017-Sep-18 02:31N 48°07' W 004°24'0 0.8
2017-Sep-18 02:00N 48°07' W 004°24'4 8.8
2017-Sep-18 01:31N 48°07' W 004°31'2 4.2
2017-Sep-18 01:00N 48°08' W 004°34'0 0.8
2017-Sep-18 00:30N 48°08' W 004°34'0 0.2
2017-Sep-18 00:01N 48°08' W 004°34'0 0.2
2017-Sep-17 23:30N 48°08' W 004°34'0 0.3
2017-Sep-17 23:01N 48°08' W 004°34'3 5.4
2017-Sep-17 22:31N 48°09' W 004°38'4 8.3
2017-Sep-17 22:01N 48°09' W 004°44'2 3.9
2017-Sep-17 21:30N 48°11' W 004°44'1 1.0
2017-Sep-17 21:00N 48°12' W 004°45'4 7.7
2017-Sep-17 20:30N 48°15' W 004°46'3 5.8
2017-Sep-17 20:01N 48°17' W 004°50'0 0.4
2017-Sep-17 19:30N 48°17' W 004°50'2 3.6
2017-Sep-17 19:00N 48°15' W 004°48'4 8.2
2017-Sep-17 18:30N 48°12' W 004°45'5 9.2
2017-Sep-17 18:00N 48°10' W 004°38'5 9.6
2017-Sep-17 17:30N 48°09' W 004°32'5 9.5
2017-Sep-17 17:00N 48°08' W 004°25'4 7.8
2017-Sep-17 16:30N 48°06' W 004°19'0 0.0
2017-Sep-17 16:01N 48°06' W 004°19'0 0.0
2017-Sep-17 15:31N 48°06' W 004°19'0 0.0
2017-Sep-15 12:47N 48°06' W 004°19'0 0.0
2017-Sep-15 06:21N 48°06' W 004°19'0 0.0
2017-Sep-15 05:04N 48°06' W 004°19'0 0.6
2017-Sep-15 05:00N 48°06' W 004°19'0 0.1
2017-Sep-15 04:30N 48°06' W 004°19'0 0.0
2017-Sep-15 04:00N 48°06' W 004°19'0 0.0
2017-Sep-15 03:31N 48°06' W 004°19'0 0.0
2017-Sep-15 03:01N 48°06' W 004°19'0 0.0
2017-Sep-15 02:30N 48°06' W 004°19'0 0.2
2017-Sep-15 02:00N 48°06' W 004°20'0 0.2
2017-Sep-15 01:30N 48°06' W 004°19'1 1.6
2017-Sep-15 01:00N 48°07' W 004°20'5 9.1
2017-Sep-15 00:30N 48°08' W 004°27'3 5.6
2017-Sep-15 00:00N 48°09' W 004°30'0 0.2
2017-Sep-14 23:30N 48°09' W 004°30'0 0.8
2017-Sep-14 23:00N 48°10' W 004°30'3 5.1
2017-Sep-14 22:30N 48°12' W 004°28'3 5.1
2017-Sep-14 22:00N 48°13' W 004°24'1 2.3
2017-Sep-14 21:31N 48°12' W 004°24'0 0.9
2017-Sep-14 21:00N 48°12' W 004°23'0 0.3
2017-Sep-14 20:31N 48°12' W 004°23'2 3.5
2017-Sep-14 20:01N 48°10' W 004°24'4 8.9
2017-Sep-14 19:30N 48°08' W 004°29'2 3.9
2017-Sep-14 19:01N 48°08' W 004°32'2 4.3
2017-Sep-14 18:28N 48°08' W 004°29'5 8.6
2017-Sep-14 17:56N 48°07' W 004°22'2 5.0
2017-Sep-14 17:31N 48°06' W 004°19'0 0.0
2017-Sep-14 17:00N 48°06' W 004°19'0 0.0
2017-Sep-14 16:30N 48°06' W 004°19'  

Dump ship's entire track history